sensor_id;sensor_type;location;lat;lon;timestamp;temperature;humidity
39519;DHT22;25200;53.394;10.414;2023-02-28T00:00:21;2.10;90.10
39519;DHT22;25200;53.394;10.414;2023-02-28T00:02:47;2.10;90.10
39519;DHT22;25200;53.394;10.414;2023-02-28T00:05:16;2.00;90.10
39519;DHT22;25200;53.394;10.414;2023-02-28T00:07:42;2.00;90.10
39519;DHT22;25200;53.394;10.414;2023-02-28T00:10:14;2.00;90.00
39519;DHT22;25200;53.394;10.414;2023-02-28T00:12:40;1.90;90.00
39519;DHT22;25200;53.394;10.414;2023-02-28T00:15:07;1.90;90.00
39519;DHT22;25200;53.394;10.414;2023-02-28T00:17:33;1.80;90.00
39519;DHT22;25200;53.394;10.414;2023-02-28T00:19:59;1.80;90.10
39519;DHT22;25200;53.394;10.414;2023-02-28T00:22:28;1.80;90.10
39519;DHT22;25200;53.394;10.414;2023-02-28T00:24:53;1.70;90.10
39519;DHT22;25200;53.394;10.414;2023-02-28T00:27:19;1.70;90.10
39519;DHT22;25200;53.394;10.414;2023-02-28T00:29:46;1.70;90.10
39519;DHT22;25200;53.394;10.414;2023-02-28T00:32:12;1.60;90.00
39519;DHT22;25200;53.394;10.414;2023-02-28T00:34:38;1.60;90.10
39519;DHT22;25200;53.394;10.414;2023-02-28T00:37:06;1.60;90.10
39519;DHT22;25200;53.394;10.414;2023-02-28T00:39:34;1.50;90.10
39519;DHT22;25200;53.394;10.414;2023-02-28T00:41:59;1.50;90.10
39519;DHT22;25200;53.394;10.414;2023-02-28T00:44:25;1.50;90.00
39519;DHT22;25200;53.394;10.414;2023-02-28T00:46:51;1.50;90.10
39519;DHT22;25200;53.394;10.414;2023-02-28T00:49:17;1.50;90.10
39519;DHT22;25200;53.394;10.414;2023-02-28T00:51:43;1.50;90.30
39519;DHT22;25200;53.394;10.414;2023-02-28T00:54:08;1.40;90.10
39519;DHT22;25200;53.394;10.414;2023-02-28T00:56:34;1.50;90.10
39519;DHT22;25200;53.394;10.414;2023-02-28T00:59:00;1.40;90.10
39519;DHT22;25200;53.394;10.414;2023-02-28T01:01:25;1.40;90.00
39519;DHT22;25200;53.394;10.414;2023-02-28T01:03:51;1.40;90.10
39519;DHT22;25200;53.394;10.414;2023-02-28T01:06:17;1.30;90.00
39519;DHT22;25200;53.394;10.414;2023-02-28T01:08:42;1.30;90.00
39519;DHT22;25200;53.394;10.414;2023-02-28T01:11:10;1.30;90.00
39519;DHT22;25200;53.394;10.414;2023-02-28T01:13:36;1.30;90.10
39519;DHT22;25200;53.394;10.414;2023-02-28T01:16:01;1.30;90.20
39519;DHT22;25200;53.394;10.414;2023-02-28T01:18:27;1.20;90.00
39519;DHT22;25200;53.394;10.414;2023-02-28T01:20:54;1.20;90.00
39519;DHT22;25200;53.394;10.414;2023-02-28T01:23:20;1.20;90.00
39519;DHT22;25200;53.394;10.414;2023-02-28T01:25:51;1.20;90.00
39519;DHT22;25200;53.394;10.414;2023-02-28T01:28:17;1.20;89.70
39519;DHT22;25200;53.394;10.414;2023-02-28T01:30:46;1.20;90.00
39519;DHT22;25200;53.394;10.414;2023-02-28T01:33:12;1.10;90.00
39519;DHT22;25200;53.394;10.414;2023-02-28T01:35:38;1.10;89.90
39519;DHT22;25200;53.394;10.414;2023-02-28T01:38:03;1.00;90.00
39519;DHT22;25200;53.394;10.414;2023-02-28T01:40:29;1.00;89.90
39519;DHT22;25200;53.394;10.414;2023-02-28T01:42:54;1.00;90.00
39519;DHT22;25200;53.394;10.414;2023-02-28T01:45:30;0.90;90.00
39519;DHT22;25200;53.394;10.414;2023-02-28T01:48:06;1.00;90.00
39519;DHT22;25200;53.394;10.414;2023-02-28T01:50:38;0.90;90.00
39519;DHT22;25200;53.394;10.414;2023-02-28T01:53:07;0.90;90.00
39519;DHT22;25200;53.394;10.414;2023-02-28T01:55:34;0.80;90.00
39519;DHT22;25200;53.394;10.414;2023-02-28T01:58:04;0.80;90.00
39519;DHT22;25200;53.394;10.414;2023-02-28T02:00:31;0.80;89.90
39519;DHT22;25200;53.394;10.414;2023-02-28T02:02:59;0.80;90.00
39519;DHT22;25200;53.394;10.414;2023-02-28T02:05:28;0.80;90.10
39519;DHT22;25200;53.394;10.414;2023-02-28T02:08:01;0.70;90.10
39519;DHT22;25200;53.394;10.414;2023-02-28T02:10:42;0.70;90.00
39519;DHT22;25200;53.394;10.414;2023-02-28T02:42:14;0.60;90.10
39519;DHT22;25200;53.394;10.414;2023-02-28T02:44:50;0.60;90.10
39519;DHT22;25200;53.394;10.414;2023-02-28T02:47:20;0.60;90.10
39519;DHT22;25200;53.394;10.414;2023-02-28T02:49:50;0.60;90.00
39519;DHT22;25200;53.394;10.414;2023-02-28T02:52:20;0.60;90.10
39519;DHT22;25200;53.394;10.414;2023-02-28T02:54:48;0.60;90.20
39519;DHT22;25200;53.394;10.414;2023-02-28T02:57:21;0.50;90.10
39519;DHT22;25200;53.394;10.414;2023-02-28T02:59:49;0.50;90.00
39519;DHT22;25200;53.394;10.414;2023-02-28T03:02:17;0.50;90.20
39519;DHT22;25200;53.394;10.414;2023-02-28T03:04:48;0.50;89.90
39519;DHT22;25200;53.394;10.414;2023-02-28T03:07:16;0.40;90.00
39519;DHT22;25200;53.394;10.414;2023-02-28T03:09:50;0.40;89.70
39519;DHT22;25200;53.394;10.414;2023-02-28T03:12:16;0.40;89.70
39519;DHT22;25200;53.394;10.414;2023-02-28T03:20:17;0.30;89.80
39519;DHT22;25200;53.394;10.414;2023-02-28T03:26:02;0.20;89.60
39519;DHT22;25200;53.394;10.414;2023-02-28T03:28:43;0.20;89.90
39519;DHT22;25200;53.394;10.414;2023-02-28T03:31:18;0.20;90.00
39519;DHT22;25200;53.394;10.414;2023-02-28T03:33:50;0.20;89.70
39519;DHT22;25200;53.394;10.414;2023-02-28T03:36:24;0.20;89.70
39519;DHT22;25200;53.394;10.414;2023-02-28T03:39:27;0.10;89.80
39519;DHT22;25200;53.394;10.414;2023-02-28T03:42:00;0.10;89.70
39519;DHT22;25200;53.394;10.414;2023-02-28T03:44:43;0.10;89.90
39519;DHT22;25200;53.394;10.414;2023-02-28T03:47:24;0.10;89.70
39519;DHT22;25200;53.394;10.414;2023-02-28T03:49:55;0.10;89.60
39519;DHT22;25200;53.394;10.414;2023-02-28T03:52:25;0.00;89.90
39519;DHT22;25200;53.394;10.414;2023-02-28T03:54:54;0.00;89.60
39519;DHT22;25200;53.394;10.414;2023-02-28T03:57:36;0.00;89.80
39519;DHT22;25200;53.394;10.414;2023-02-28T04:00:20;0.00;89.60
39519;DHT22;25200;53.394;10.414;2023-02-28T04:02:46;-0.10;89.80
39519;DHT22;25200;53.394;10.414;2023-02-28T04:05:18;-0.10;89.80
39519;DHT22;25200;53.394;10.414;2023-02-28T04:07:44;-0.10;89.70
39519;DHT22;25200;53.394;10.414;2023-02-28T04:10:11;-0.10;89.70
39519;DHT22;25200;53.394;10.414;2023-02-28T04:12:38;-0.10;89.70
39519;DHT22;25200;53.394;10.414;2023-02-28T04:15:04;-0.10;89.80
39519;DHT22;25200;53.394;10.414;2023-02-28T04:17:30;-0.10;89.60
39519;DHT22;25200;53.394;10.414;2023-02-28T04:19:56;-0.20;89.50
39519;DHT22;25200;53.394;10.414;2023-02-28T04:22:23;-0.20;89.50
39519;DHT22;25200;53.394;10.414;2023-02-28T04:24:51;-0.20;89.60
39519;DHT22;25200;53.394;10.414;2023-02-28T04:27:19;-0.20;89.60
39519;DHT22;25200;53.394;10.414;2023-02-28T04:29:45;-0.20;89.70
39519;DHT22;25200;53.394;10.414;2023-02-28T04:32:11;-0.20;89.60
39519;DHT22;25200;53.394;10.414;2023-02-28T04:34:36;-0.20;89.60
39519;DHT22;25200;53.394;10.414;2023-02-28T04:37:02;-0.20;89.40
39519;DHT22;25200;53.394;10.414;2023-02-28T04:39:29;-0.30;89.60
39519;DHT22;25200;53.394;10.414;2023-02-28T04:41:55;-0.30;89.40
39519;DHT22;25200;53.394;10.414;2023-02-28T04:44:21;-0.30;89.50
39519;DHT22;25200;53.394;10.414;2023-02-28T04:46:48;-0.30;89.30
39519;DHT22;25200;53.394;10.414;2023-02-28T04:49:14;-0.30;89.50
39519;DHT22;25200;53.394;10.414;2023-02-28T04:51:41;-0.30;89.60
39519;DHT22;25200;53.394;10.414;2023-02-28T04:54:07;-0.30;89.50
39519;DHT22;25200;53.394;10.414;2023-02-28T04:56:33;-0.30;89.40
39519;DHT22;25200;53.394;10.414;2023-02-28T04:58:59;-0.40;89.20
39519;DHT22;25200;53.394;10.414;2023-02-28T05:01:29;-0.40;89.50
39519;DHT22;25200;53.394;10.414;2023-02-28T05:03:57;-0.40;89.50
39519;DHT22;25200;53.394;10.414;2023-02-28T05:06:25;-0.40;89.50
39519;DHT22;25200;53.394;10.414;2023-02-28T05:08:51;-0.40;89.50
39519;DHT22;25200;53.394;10.414;2023-02-28T05:11:23;-0.40;89.40
39519;DHT22;25200;53.394;10.414;2023-02-28T05:13:50;-0.40;89.50
39519;DHT22;25200;53.394;10.414;2023-02-28T05:16:16;-0.40;89.50
39519;DHT22;25200;53.394;10.414;2023-02-28T05:18:42;-0.50;89.20
39519;DHT22;25200;53.394;10.414;2023-02-28T05:23:49;-0.50;89.30
39519;DHT22;25200;53.394;10.414;2023-02-28T05:26:15;-0.50;89.50
39519;DHT22;25200;53.394;10.414;2023-02-28T05:28:41;-0.50;89.40
39519;DHT22;25200;53.394;10.414;2023-02-28T05:31:07;-0.50;89.50
39519;DHT22;25200;53.394;10.414;2023-02-28T05:33:33;-0.50;89.40
39519;DHT22;25200;53.394;10.414;2023-02-28T05:35:59;-0.60;89.20
39519;DHT22;25200;53.394;10.414;2023-02-28T05:38:24;-0.60;89.20
39519;DHT22;25200;53.394;10.414;2023-02-28T05:40:50;-0.60;89.20
39519;DHT22;25200;53.394;10.414;2023-02-28T05:43:16;-0.60;89.40
39519;DHT22;25200;53.394;10.414;2023-02-28T05:45:41;-0.60;89.50
39519;DHT22;25200;53.394;10.414;2023-02-28T05:48:08;-0.60;89.20
39519;DHT22;25200;53.394;10.414;2023-02-28T05:50:33;-0.70;89.00
39519;DHT22;25200;53.394;10.414;2023-02-28T05:52:59;-0.70;89.00
39519;DHT22;25200;53.394;10.414;2023-02-28T05:55:25;-0.70;89.10
39519;DHT22;25200;53.394;10.414;2023-02-28T05:57:51;-0.70;89.20
39519;DHT22;25200;53.394;10.414;2023-02-28T06:00:16;-0.70;89.10
39519;DHT22;25200;53.394;10.414;2023-02-28T06:02:43;-0.70;89.20
39519;DHT22;25200;53.394;10.414;2023-02-28T06:05:17;-0.70;89.40
39519;DHT22;25200;53.394;10.414;2023-02-28T06:07:43;-0.70;89.20
39519;DHT22;25200;53.394;10.414;2023-02-28T06:10:12;-0.80;89.00
39519;DHT22;25200;53.394;10.414;2023-02-28T06:12:39;-0.80;89.00
39519;DHT22;25200;53.394;10.414;2023-02-28T06:15:07;-0.80;89.10
39519;DHT22;25200;53.394;10.414;2023-02-28T06:17:33;-0.80;89.20
39519;DHT22;25200;53.394;10.414;2023-02-28T06:19:59;-0.80;89.00
39519;DHT22;25200;53.394;10.414;2023-02-28T06:22:24;-0.80;89.10
39519;DHT22;25200;53.394;10.414;2023-02-28T06:24:50;-0.80;89.20
39519;DHT22;25200;53.394;10.414;2023-02-28T06:27:16;-0.80;89.20
39519;DHT22;25200;53.394;10.414;2023-02-28T06:29:41;-0.90;89.20
39519;DHT22;25200;53.394;10.414;2023-02-28T06:32:07;-0.90;89.10
39519;DHT22;25200;53.394;10.414;2023-02-28T06:34:33;-0.90;89.20
39519;DHT22;25200;53.394;10.414;2023-02-28T06:37:02;-0.90;89.40
39519;DHT22;25200;53.394;10.414;2023-02-28T06:39:31;-0.90;89.20
39519;DHT22;25200;53.394;10.414;2023-02-28T06:41:57;-0.90;89.20
39519;DHT22;25200;53.394;10.414;2023-02-28T06:44:23;-0.90;89.20
39519;DHT22;25200;53.394;10.414;2023-02-28T06:46:49;-0.90;89.30
39519;DHT22;25200;53.394;10.414;2023-02-28T06:49:15;-0.90;89.50
39519;DHT22;25200;53.394;10.414;2023-02-28T06:51:43;-0.90;89.30
39519;DHT22;25200;53.394;10.414;2023-02-28T06:54:11;-0.90;89.40
39519;DHT22;25200;53.394;10.414;2023-02-28T06:56:37;-0.90;89.30
39519;DHT22;25200;53.394;10.414;2023-02-28T06:59:03;-0.90;89.60
39519;DHT22;25200;53.394;10.414;2023-02-28T07:01:29;-0.90;89.60
39519;DHT22;25200;53.394;10.414;2023-02-28T07:03:57;-1.00;89.50
39519;DHT22;25200;53.394;10.414;2023-02-28T07:06:23;-1.00;89.50
39519;DHT22;25200;53.394;10.414;2023-02-28T07:08:50;-0.90;89.80
39519;DHT22;25200;53.394;10.414;2023-02-28T07:11:16;-0.90;89.60
39519;DHT22;25200;53.394;10.414;2023-02-28T07:13:42;-1.00;89.80
39519;DHT22;25200;53.394;10.414;2023-02-28T07:16:10;-0.90;90.10
39519;DHT22;25200;53.394;10.414;2023-02-28T07:18:36;-0.90;90.00
39519;DHT22;25200;53.394;10.414;2023-02-28T07:21:04;-0.90;90.10
39519;DHT22;25200;53.394;10.414;2023-02-28T07:23:29;-0.80;90.20
39519;DHT22;25200;53.394;10.414;2023-02-28T07:25:55;-0.80;90.00
39519;DHT22;25200;53.394;10.414;2023-02-28T07:28:21;-0.80;90.10
39519;DHT22;25200;53.394;10.414;2023-02-28T07:30:46;-0.80;90.20
39519;DHT22;25200;53.394;10.414;2023-02-28T07:33:13;-0.80;90.10
39519;DHT22;25200;53.394;10.414;2023-02-28T07:35:39;-0.80;90.20
39519;DHT22;25200;53.394;10.414;2023-02-28T07:38:05;-0.80;90.30
39519;DHT22;25200;53.394;10.414;2023-02-28T07:40:33;-0.70;90.20
39519;DHT22;25200;53.394;10.414;2023-02-28T07:43:00;-0.70;90.30
39519;DHT22;25200;53.394;10.414;2023-02-28T07:45:26;-0.70;90.20
39519;DHT22;25200;53.394;10.414;2023-02-28T07:47:54;-0.70;90.30
39519;DHT22;25200;53.394;10.414;2023-02-28T07:50:20;-0.70;90.20
39519;DHT22;25200;53.394;10.414;2023-02-28T07:52:46;-0.70;90.00
39519;DHT22;25200;53.394;10.414;2023-02-28T07:55:11;-0.70;90.10
39519;DHT22;25200;53.394;10.414;2023-02-28T07:57:39;-0.60;90.10
39519;DHT22;25200;53.394;10.414;2023-02-28T08:00:07;-0.60;90.10
39519;DHT22;25200;53.394;10.414;2023-02-28T08:02:35;-0.60;90.30
39519;DHT22;25200;53.394;10.414;2023-02-28T08:05:01;-0.60;90.10
39519;DHT22;25200;53.394;10.414;2023-02-28T08:07:27;-0.60;90.30
39519;DHT22;25200;53.394;10.414;2023-02-28T08:09:53;-0.60;90.10
39519;DHT22;25200;53.394;10.414;2023-02-28T08:12:19;-0.60;90.30
39519;DHT22;25200;53.394;10.414;2023-02-28T08:14:45;-0.60;90.10
39519;DHT22;25200;53.394;10.414;2023-02-28T08:17:11;-0.50;90.20
39519;DHT22;25200;53.394;10.414;2023-02-28T08:19:37;-0.50;90.30
39519;DHT22;25200;53.394;10.414;2023-02-28T08:22:03;-0.50;90.30
39519;DHT22;25200;53.394;10.414;2023-02-28T08:24:29;-0.50;90.30
39519;DHT22;25200;53.394;10.414;2023-02-28T08:26:55;-0.50;90.30
39519;DHT22;25200;53.394;10.414;2023-02-28T08:29:21;-0.50;90.60
39519;DHT22;25200;53.394;10.414;2023-02-28T08:31:47;-0.50;90.50
39519;DHT22;25200;53.394;10.414;2023-02-28T08:34:14;-0.40;90.60
39519;DHT22;25200;53.394;10.414;2023-02-28T08:36:40;-0.40;90.50
39519;DHT22;25200;53.394;10.414;2023-02-28T08:39:06;-0.40;90.20
39519;DHT22;25200;53.394;10.414;2023-02-28T08:41:33;-0.30;90.50
39519;DHT22;25200;53.394;10.414;2023-02-28T08:43:59;-0.30;90.60
39519;DHT22;25200;53.394;10.414;2023-02-28T08:46:25;-0.30;90.30
39519;DHT22;25200;53.394;10.414;2023-02-28T08:48:55;-0.30;90.60
39519;DHT22;25200;53.394;10.414;2023-02-28T08:51:24;-0.20;90.10
39519;DHT22;25200;53.394;10.414;2023-02-28T08:53:58;-0.20;90.40
39519;DHT22;25200;53.394;10.414;2023-02-28T08:56:26;-0.10;90.20
39519;DHT22;25200;53.394;10.414;2023-02-28T08:58:53;-0.10;90.00
39519;DHT22;25200;53.394;10.414;2023-02-28T09:01:23;0.00;90.00
39519;DHT22;25200;53.394;10.414;2023-02-28T09:03:50;0.00;90.00
39519;DHT22;25200;53.394;10.414;2023-02-28T09:06:18;0.10;90.00
39519;DHT22;25200;53.394;10.414;2023-02-28T09:08:44;0.10;89.80
39519;DHT22;25200;53.394;10.414;2023-02-28T09:11:11;0.20;89.70
39519;DHT22;25200;53.394;10.414;2023-02-28T09:13:38;0.20;89.60
39519;DHT22;25200;53.394;10.414;2023-02-28T09:16:06;0.30;89.60
39519;DHT22;25200;53.394;10.414;2023-02-28T09:18:34;0.30;89.60
39519;DHT22;25200;53.394;10.414;2023-02-28T09:21:03;0.30;89.60
39519;DHT22;25200;53.394;10.414;2023-02-28T09:23:30;0.40;89.60
39519;DHT22;25200;53.394;10.414;2023-02-28T09:25:56;0.50;89.50
39519;DHT22;25200;53.394;10.414;2023-02-28T09:28:22;0.50;89.50
39519;DHT22;25200;53.394;10.414;2023-02-28T09:30:51;0.50;89.40
39519;DHT22;25200;53.394;10.414;2023-02-28T09:33:17;0.60;89.40
39519;DHT22;25200;53.394;10.414;2023-02-28T09:35:44;0.60;89.70
39519;DHT22;25200;53.394;10.414;2023-02-28T09:38:10;0.60;89.60
39519;DHT22;25200;53.394;10.414;2023-02-28T09:41:03;0.70;89.80
39519;DHT22;25200;53.394;10.414;2023-02-28T09:43:34;0.70;90.40
39519;DHT22;25200;53.394;10.414;2023-02-28T09:46:28;0.80;89.80
39519;DHT22;25200;53.394;10.414;2023-02-28T09:48:55;0.80;89.90
39519;DHT22;25200;53.394;10.414;2023-02-28T09:54:05;0.90;90.00
39519;DHT22;25200;53.394;10.414;2023-02-28T09:56:39;1.00;90.30
39519;DHT22;25200;53.394;10.414;2023-02-28T09:59:21;1.00;90.10
39519;DHT22;25200;53.394;10.414;2023-02-28T10:04:42;1.30;90.10
39519;DHT22;25200;53.394;10.414;2023-02-28T10:10:06;1.60;90.00
39519;DHT22;25200;53.394;10.414;2023-02-28T10:12:36;1.90;90.00
39519;DHT22;25200;53.394;10.414;2023-02-28T10:15:04;2.10;89.90
39519;DHT22;25200;53.394;10.414;2023-02-28T10:17:40;2.30;89.90
39519;DHT22;25200;53.394;10.414;2023-02-28T10:20:17;2.50;89.60
39519;DHT22;25200;53.394;10.414;2023-02-28T10:25:27;3.00;89.40
39519;DHT22;25200;53.394;10.414;2023-02-28T10:27:56;3.20;89.10
39519;DHT22;25200;53.394;10.414;2023-02-28T10:30:23;3.40;89.10
39519;DHT22;25200;53.394;10.414;2023-02-28T10:32:52;3.70;90.00
39519;DHT22;25200;53.394;10.414;2023-02-28T10:35:26;3.90;89.20
39519;DHT22;25200;53.394;10.414;2023-02-28T10:37:59;4.10;89.00
39519;DHT22;25200;53.394;10.414;2023-02-28T10:40:29;4.40;89.50
39519;DHT22;25200;53.394;10.414;2023-02-28T10:45:27;4.90;90.10
39519;DHT22;25200;53.394;10.414;2023-02-28T10:47:57;5.20;89.60
39519;DHT22;25200;53.394;10.414;2023-02-28T10:53:31;5.60;89.20
39519;DHT22;25200;53.394;10.414;2023-02-28T10:58:53;6.10;90.40
39519;DHT22;25200;53.394;10.414;2023-02-28T11:01:36;6.30;90.70
39519;DHT22;25200;53.394;10.414;2023-02-28T11:04:03;6.50;90.50
39519;DHT22;25200;53.394;10.414;2023-02-28T11:06:31;6.70;90.20
39519;DHT22;25200;53.394;10.414;2023-02-28T11:09:04;6.90;89.80
39519;DHT22;25200;53.394;10.414;2023-02-28T11:11:43;7.00;89.50
39519;DHT22;25200;53.394;10.414;2023-02-28T11:14:31;7.10;88.80
39519;DHT22;25200;53.394;10.414;2023-02-28T11:17:24;7.20;89.30
39519;DHT22;25200;53.394;10.414;2023-02-28T11:19:52;7.30;90.00
39519;DHT22;25200;53.394;10.414;2023-02-28T11:22:22;7.40;88.80
39519;DHT22;25200;53.394;10.414;2023-02-28T11:24:51;7.50;89.10
39519;DHT22;25200;53.394;10.414;2023-02-28T11:29:57;7.70;90.30
39519;DHT22;25200;53.394;10.414;2023-02-28T11:32:29;7.80;89.90
39519;DHT22;25200;53.394;10.414;2023-02-28T11:37:37;8.00;89.80
39519;DHT22;25200;53.394;10.414;2023-02-28T11:40:18;8.10;90.30
39519;DHT22;25200;53.394;10.414;2023-02-28T11:50:50;8.70;89.00
39519;DHT22;25200;53.394;10.414;2023-02-28T11:56:38;9.00;88.50
39519;DHT22;25200;53.394;10.414;2023-02-28T12:02:26;9.20;88.70
39519;DHT22;25200;53.394;10.414;2023-02-28T12:10:24;9.50;88.80
39519;DHT22;25200;53.394;10.414;2023-02-28T12:13:01;9.70;88.80
39519;DHT22;25200;53.394;10.414;2023-02-28T12:16:04;9.80;88.90
39519;DHT22;25200;53.394;10.414;2023-02-28T12:19:36;9.90;88.70
39519;DHT22;25200;53.394;10.414;2023-02-28T12:27:06;10.40;89.00
39519;DHT22;25200;53.394;10.414;2023-02-28T12:30:00;10.50;89.00
39519;DHT22;25200;53.394;10.414;2023-02-28T12:32:31;10.60;88.60
39519;DHT22;25200;53.394;10.414;2023-02-28T12:35:23;10.80;88.60
39519;DHT22;25200;53.394;10.414;2023-02-28T12:37:49;10.90;88.50
39519;DHT22;25200;53.394;10.414;2023-02-28T12:40:22;11.00;88.20
39519;DHT22;25200;53.394;10.414;2023-02-28T12:43:07;11.10;87.50
39519;DHT22;25200;53.394;10.414;2023-02-28T12:45:53;11.20;88.10
39519;DHT22;25200;53.394;10.414;2023-02-28T12:48:29;11.20;88.20
39519;DHT22;25200;53.394;10.414;2023-02-28T12:50:57;11.30;88.50
39519;DHT22;25200;53.394;10.414;2023-02-28T12:59:21;11.50;88.30
39519;DHT22;25200;53.394;10.414;2023-02-28T13:09:55;11.80;87.70
39519;DHT22;25200;53.394;10.414;2023-02-28T13:12:22;11.90;88.40
39519;DHT22;25200;53.394;10.414;2023-02-28T13:14:49;12.00;88.50
39519;DHT22;25200;53.394;10.414;2023-02-28T13:17:21;12.10;88.70
39519;DHT22;25200;53.394;10.414;2023-02-28T13:24:55;12.30;88.80
39519;DHT22;25200;53.394;10.414;2023-02-28T13:27:39;12.40;88.80
39519;DHT22;25200;53.394;10.414;2023-02-28T13:44:19;12.00;86.50
39519;DHT22;25200;53.394;10.414;2023-02-28T13:51:50;11.60;87.50
39519;DHT22;25200;53.394;10.414;2023-02-28T14:00:23;11.50;87.00
39519;DHT22;25200;53.394;10.414;2023-02-28T14:11:32;11.50;88.70
39519;DHT22;25200;53.394;10.414;2023-02-28T14:13:59;11.50;87.00
39519;DHT22;25200;53.394;10.414;2023-02-28T14:16:27;11.60;88.00
39519;DHT22;25200;53.394;10.414;2023-02-28T14:19:01;11.60;87.60
39519;DHT22;25200;53.394;10.414;2023-02-28T14:21:32;11.60;88.20
39519;DHT22;25200;53.394;10.414;2023-02-28T14:27:20;11.70;87.50
39519;DHT22;25200;53.394;10.414;2023-02-28T14:35:09;11.80;87.50
39519;DHT22;25200;53.394;10.414;2023-02-28T14:37:41;11.80;87.20
39519;DHT22;25200;53.394;10.414;2023-02-28T14:40:37;11.90;86.40
39519;DHT22;25200;53.394;10.414;2023-02-28T14:43:06;11.90;86.70
39519;DHT22;25200;53.394;10.414;2023-02-28T14:45:33;11.90;86.80
39519;DHT22;25200;53.394;10.414;2023-02-28T14:48:01;11.90;86.80
39519;DHT22;25200;53.394;10.414;2023-02-28T14:50:31;11.90;86.20
39519;DHT22;25200;53.394;10.414;2023-02-28T14:52:58;12.00;85.40
39519;DHT22;25200;53.394;10.414;2023-02-28T14:55:30;12.00;86.30
39519;DHT22;25200;53.394;10.414;2023-02-28T14:58:02;11.90;85.80
39519;DHT22;25200;53.394;10.414;2023-02-28T15:00:34;11.90;85.20
39519;DHT22;25200;53.394;10.414;2023-02-28T15:06:00;11.80;85.90
39519;DHT22;25200;53.394;10.414;2023-02-28T15:08:26;11.80;86.50
39519;DHT22;25200;53.394;10.414;2023-02-28T15:11:00;11.70;86.60
39519;DHT22;25200;53.394;10.414;2023-02-28T15:13:49;11.60;84.90
39519;DHT22;25200;53.394;10.414;2023-02-28T15:16:25;11.50;85.80
39519;DHT22;25200;53.394;10.414;2023-02-28T15:18:55;11.50;86.30
39519;DHT22;25200;53.394;10.414;2023-02-28T15:21:29;11.40;86.40
39519;DHT22;25200;53.394;10.414;2023-02-28T15:24:14;11.30;85.20
39519;DHT22;25200;53.394;10.414;2023-02-28T15:26:43;11.20;84.40
39519;DHT22;25200;53.394;10.414;2023-02-28T15:29:17;11.10;85.50
39519;DHT22;25200;53.394;10.414;2023-02-28T15:31:48;11.10;85.80
39519;DHT22;25200;53.394;10.414;2023-02-28T15:34:24;10.90;84.30
39519;DHT22;25200;53.394;10.414;2023-02-28T15:36:52;10.80;85.80
39519;DHT22;25200;53.394;10.414;2023-02-28T15:39:27;10.70;85.50
39519;DHT22;25200;53.394;10.414;2023-02-28T15:42:16;10.60;85.00
39519;DHT22;25200;53.394;10.414;2023-02-28T15:44:43;10.40;85.00
39519;DHT22;25200;53.394;10.414;2023-02-28T15:47:24;10.30;85.00
39519;DHT22;25200;53.394;10.414;2023-02-28T15:50:00;10.20;85.40
39519;DHT22;25200;53.394;10.414;2023-02-28T15:55:16;10.00;86.00
39519;DHT22;25200;53.394;10.414;2023-02-28T15:57:44;9.90;85.20
39519;DHT22;25200;53.394;10.414;2023-02-28T16:00:14;9.80;85.30
39519;DHT22;25200;53.394;10.414;2023-02-28T16:02:40;9.70;85.50
39519;DHT22;25200;53.394;10.414;2023-02-28T16:07:37;9.60;85.70
39519;DHT22;25200;53.394;10.414;2023-02-28T16:10:05;9.50;85.80
39519;DHT22;25200;53.394;10.414;2023-02-28T16:12:33;9.40;85.90
39519;DHT22;25200;53.394;10.414;2023-02-28T16:15:01;9.30;85.90
39519;DHT22;25200;53.394;10.414;2023-02-28T16:17:37;9.20;85.90
39519;DHT22;25200;53.394;10.414;2023-02-28T16:20:28;9.20;86.10
39519;DHT22;25200;53.394;10.414;2023-02-28T16:22:55;9.10;86.20
39519;DHT22;25200;53.394;10.414;2023-02-28T16:25:25;9.00;86.20
39519;DHT22;25200;53.394;10.414;2023-02-28T16:27:53;8.90;86.10
39519;DHT22;25200;53.394;10.414;2023-02-28T16:30:24;8.80;85.80
39519;DHT22;25200;53.394;10.414;2023-02-28T16:32:52;8.70;86.10
39519;DHT22;25200;53.394;10.414;2023-02-28T16:35:20;8.70;86.50
39519;DHT22;25200;53.394;10.414;2023-02-28T16:37:45;8.60;86.60
39519;DHT22;25200;53.394;10.414;2023-02-28T16:40:20;8.50;86.60
39519;DHT22;25200;53.394;10.414;2023-02-28T16:42:48;8.50;86.50
39519;DHT22;25200;53.394;10.414;2023-02-28T16:45:22;8.40;86.60
39519;DHT22;25200;53.394;10.414;2023-02-28T16:47:49;8.30;86.50
39519;DHT22;25200;53.394;10.414;2023-02-28T16:50:20;8.20;86.40
39519;DHT22;25200;53.394;10.414;2023-02-28T16:52:46;8.10;86.60
39519;DHT22;25200;53.394;10.414;2023-02-28T16:55:13;8.00;86.70
39519;DHT22;25200;53.394;10.414;2023-02-28T16:57:39;8.00;86.90
39519;DHT22;25200;53.394;10.414;2023-02-28T17:00:08;7.90;87.00
39519;DHT22;25200;53.394;10.414;2023-02-28T17:02:34;7.80;86.90
39519;DHT22;25200;53.394;10.414;2023-02-28T17:05:00;7.70;86.80
39519;DHT22;25200;53.394;10.414;2023-02-28T17:07:26;7.60;86.90
39519;DHT22;25200;53.394;10.414;2023-02-28T17:09:52;7.50;87.00
39519;DHT22;25200;53.394;10.414;2023-02-28T17:12:17;7.50;86.90
39519;DHT22;25200;53.394;10.414;2023-02-28T17:14:43;7.40;86.90
39519;DHT22;25200;53.394;10.414;2023-02-28T17:17:15;7.30;86.80
39519;DHT22;25200;53.394;10.414;2023-02-28T17:19:42;7.20;87.00
39519;DHT22;25200;53.394;10.414;2023-02-28T17:22:09;7.10;87.20
39519;DHT22;25200;53.394;10.414;2023-02-28T17:24:35;7.10;87.20
39519;DHT22;25200;53.394;10.414;2023-02-28T17:27:01;7.00;87.20
39519;DHT22;25200;53.394;10.414;2023-02-28T17:29:27;6.90;87.20
39519;DHT22;25200;53.394;10.414;2023-02-28T17:31:53;6.90;87.30
39519;DHT22;25200;53.394;10.414;2023-02-28T17:34:19;6.80;87.20
39519;DHT22;25200;53.394;10.414;2023-02-28T17:36:46;6.70;87.30
39519;DHT22;25200;53.394;10.414;2023-02-28T17:39:13;6.60;87.20
39519;DHT22;25200;53.394;10.414;2023-02-28T17:41:41;6.60;87.10
39519;DHT22;25200;53.394;10.414;2023-02-28T17:44:07;6.50;87.20
39519;DHT22;25200;53.394;10.414;2023-02-28T17:46:34;6.40;87.20
39519;DHT22;25200;53.394;10.414;2023-02-28T17:49:00;6.40;87.20
39519;DHT22;25200;53.394;10.414;2023-02-28T17:51:26;6.30;87.10
39519;DHT22;25200;53.394;10.414;2023-02-28T17:53:52;6.20;86.80
39519;DHT22;25200;53.394;10.414;2023-02-28T17:56:21;6.20;87.00
39519;DHT22;25200;53.394;10.414;2023-02-28T17:58:47;6.10;87.10
39519;DHT22;25200;53.394;10.414;2023-02-28T18:01:13;6.00;87.10
39519;DHT22;25200;53.394;10.414;2023-02-28T18:03:39;6.00;87.00
39519;DHT22;25200;53.394;10.414;2023-02-28T18:06:05;5.90;87.00
39519;DHT22;25200;53.394;10.414;2023-02-28T18:08:32;5.80;87.40
39519;DHT22;25200;53.394;10.414;2023-02-28T18:11:00;5.80;87.00
39519;DHT22;25200;53.394;10.414;2023-02-28T18:13:26;5.70;86.70
39519;DHT22;25200;53.394;10.414;2023-02-28T18:15:53;5.60;86.90
39519;DHT22;25200;53.394;10.414;2023-02-28T18:18:19;5.50;86.80